Time;durP1;ratioP1;P1;durP2;ratioP2;P2;SDS_P1;SDS_P2;PMS_P1;PMS_P2;Temp;Humidity;BMP_temperature;BMP_pressure;BME280_temperature;BME280_humidity;BME280_pressure;Samples;Min_cycle;Max_cycle;Signal;HPM_P1;HPM_P2
2021/12/29 00:01:16;;;;;;;5.18;1.33;;;9.50;97.10;;;;;;5085804;28;20533;-76
2021/12/29 00:03:44;;;;;;;3.17;1.60;;;9.50;97.10;;;;;;5078505;28;20143;-76
2021/12/29 00:06:11;;;;;;;4.03;1.60;;;9.50;97.10;;;;;;5088560;28;20303;-76
2021/12/29 00:08:38;;;;;;;3.05;1.52;;;9.50;97.10;;;;;;5088791;28;20101;-76
2021/12/29 00:11:06;;;;;;;3.63;1.27;;;9.50;97.10;;;;;;5070579;28;20695;-76
2021/12/29 00:13:33;;;;;;;4.00;1.77;;;9.50;97.10;;;;;;5069801;28;20144;-76
2021/12/29 00:16:01;;;;;;;3.67;1.75;;;9.50;97.10;;;;;;5069432;28;20052;-76
2021/12/29 00:18:30;;;;;;;4.15;2.28;;;9.50;97.10;;;;;;5086584;28;20632;-76
2021/12/29 00:21:01;;;;;;;5.32;2.20;;;9.50;97.10;;;;;;5086442;28;20099;-76
2021/12/29 00:23:28;;;;;;;5.50;2.40;;;9.50;97.10;;;;;;5085380;28;20109;-76
2021/12/29 00:26:06;;;;;;;5.70;2.80;;;9.50;97.10;;;;;;5084607;28;21012;-76
2021/12/29 00:28:33;;;;;;;4.75;2.97;;;9.50;97.10;;;;;;5088028;28;20044;-76
2021/12/29 00:31:00;;;;;;;4.05;2.25;;;9.50;97.10;;;;;;5068901;28;20077;-76
2021/12/29 00:33:46;;;;;;;5.40;2.45;;;9.50;97.10;;;;;;5086629;28;20067;-76
2021/12/29 00:36:33;;;;;;;5.95;2.70;;;9.50;97.10;;;;;;5085495;28;20200;-76
2021/12/29 00:39:18;;;;;;;3.75;1.85;;;9.50;97.10;;;;;;5085437;28;20507;-76
2021/12/29 00:42:05;;;;;;;6.72;2.70;;;9.50;97.10;;;;;;5086464;28;20051;-76
2021/12/29 00:45:02;;;;;;;6.93;2.50;;;9.50;97.10;;;;;;5035692;28;20045;-76
2021/12/29 00:47:32;;;;;;;5.57;2.38;;;9.50;97.10;;;;;;5087406;28;20042;-76
2021/12/29 00:50:05;;;;;;;5.22;2.10;;;9.50;97.10;;;;;;5068948;28;20448;-75
2021/12/29 00:52:32;;;;;;;4.60;2.30;;;9.50;97.10;;;;;;5069009;28;20138;-76
2021/12/29 00:55:00;;;;;;;4.40;1.83;;;9.50;97.30;;;;;;5086239;28;20036;-76
2021/12/29 00:57:27;;;;;;;3.60;1.52;;;9.50;97.10;;;;;;5086875;28;20056;-75
2021/12/29 00:59:54;;;;;;;4.47;2.08;;;9.50;97.10;;;;;;5083517;28;20043;-74
2021/12/29 01:02:22;;;;;;;5.05;1.75;;;9.50;97.10;;;;;;5083886;28;20412;-74
2021/12/29 01:04:49;;;;;;;4.10;1.67;;;9.50;97.10;;;;;;5064858;28;20056;-74
2021/12/29 01:07:17;;;;;;;4.43;1.80;;;9.50;97.10;;;;;;5082272;28;20079;-74
2021/12/29 01:09:45;;;;;;;5.03;2.17;;;9.50;97.10;;;;;;5083330;28;20055;-74
2021/12/29 01:12:12;;;;;;;6.85;2.45;;;9.50;97.10;;;;;;5082762;28;20087;-74
2021/12/29 01:14:43;;;;;;;7.85;3.42;;;9.50;97.10;;;;;;5081455;28;21267;-75
2021/12/29 01:17:10;;;;;;;6.90;2.83;;;9.50;97.20;;;;;;5065083;28;20047;-74
2021/12/29 01:19:38;;;;;;;6.50;2.60;;;9.50;97.10;;;;;;5081870;28;20121;-76
2021/12/29 01:22:05;;;;;;;6.63;3.03;;;9.50;97.20;;;;;;5085374;28;20048;-76
2021/12/29 01:24:32;;;;;;;7.25;3.10;;;9.50;97.20;;;;;;5082903;28;20077;-77
2021/12/29 01:27:00;;;;;;;5.47;2.80;;;9.50;97.20;;;;;;5086029;28;20119;-76
2021/12/29 01:29:28;;;;;;;6.30;2.42;;;9.50;97.10;;;;;;5068260;28;20662;-76
2021/12/29 01:31:57;;;;;;;6.60;2.53;;;9.50;97.20;;;;;;5083883;28;20052;-76
2021/12/29 01:34:25;;;;;;;6.72;3.33;;;9.50;97.20;;;;;;5083773;28;20047;-76
2021/12/29 01:36:53;;;;;;;8.55;3.97;;;9.50;97.20;;;;;;5085384;28;20044;-76
2021/12/29 01:39:23;;;;;;;7.00;3.55;;;9.50;97.20;;;;;;5086402;28;20060;-77
2021/12/29 01:41:53;;;;;;;9.07;4.15;;;9.50;97.20;;;;;;5086384;28;20063;-77
2021/12/29 01:44:23;;;;;;;7.78;3.95;;;9.50;97.20;;;;;;5086937;28;20117;-74
2021/12/29 01:46:52;;;;;;;8.40;3.70;;;9.50;97.20;;;;;;5082298;28;20089;-74
2021/12/29 01:49:19;;;;;;;15.27;4.75;;;9.50;97.20;;;;;;5085239;28;20097;-74
2021/12/29 01:51:50;;;;;;;11.75;4.75;;;9.50;97.20;;;;;;5071968;28;20075;-74
2021/12/29 01:54:24;;;;;;;9.02;3.80;;;9.50;97.20;;;;;;5090766;28;20048;-74
2021/12/29 01:56:57;;;;;;;7.82;3.35;;;9.50;97.20;;;;;;5080936;28;20052;-74
2021/12/29 01:59:26;;;;;;;10.80;3.72;;;9.50;97.20;;;;;;5082912;28;20106;-74
2021/12/29 02:01:54;;;;;;;9.77;4.75;;;9.50;97.20;;;;;;5066585;28;20052;-75
2021/12/29 02:04:22;;;;;;;7.55;3.05;;;9.50;97.20;;;;;;5065584;28;20054;-74
2021/12/29 02:06:49;;;;;;;7.47;3.83;;;9.50;97.20;;;;;;5081869;28;20123;-74
2021/12/29 02:09:16;;;;;;;9.98;3.78;;;9.50;97.20;;;;;;5080402;28;20488;-75
2021/12/29 02:11:45;;;;;;;6.22;3.03;;;9.40;97.20;;;;;;5082556;28;20052;-75
2021/12/29 02:14:12;;;;;;;6.65;3.03;;;9.40;97.20;;;;;;5080378;28;20040;-74
2021/12/29 02:16:40;;;;;;;4.97;2.47;;;9.50;97.20;;;;;;5080228;28;20129;-74
2021/12/29 02:19:10;;;;;;;6.22;3.13;;;9.50;97.20;;;;;;5079487;28;20123;-73
2021/12/29 02:21:38;;;;;;;8.68;3.72;;;9.50;97.30;;;;;;5080045;28;20148;-73
2021/12/29 02:26:38;;;;;;;9.20;3.40;;;9.40;97.20;;;;;;5083926;28;20041;-74
2021/12/29 02:29:13;;;;;;;7.07;3.33;;;9.50;97.30;;;;;;5079436;28;20047;-74
2021/12/29 02:31:41;;;;;;;8.20;3.35;;;9.50;97.30;;;;;;5082244;28;20087;-74
2021/12/29 02:34:10;;;;;;;8.95;3.83;;;9.50;97.20;;;;;;5047359;28;21231;-74
2021/12/29 02:36:45;;;;;;;11.27;4.15;;;9.50;97.20;;;;;;5080243;28;20102;-74
2021/12/29 02:39:19;;;;;;;15.10;4.95;;;9.40;97.20;;;;;;5065482;28;20076;-74
2021/12/29 02:41:52;;;;;;;10.75;4.45;;;9.50;97.30;;;;;;5064185;28;20136;-74
2021/12/29 02:44:28;;;;;;;10.85;4.68;;;9.40;97.20;;;;;;5079020;28;20048;-73
2021/12/29 02:46:57;;;;;;;10.05;4.60;;;9.50;97.50;;;;;;5063552;28;20086;-74
2021/12/29 02:49:25;;;;;;;12.43;4.78;;;9.40;97.20;;;;;;5081777;28;20044;-73
2021/12/29 02:51:52;;;;;;;8.02;4.10;;;9.40;97.20;;;;;;5082271;28;20090;-74
2021/12/29 02:54:20;;;;;;;7.35;4.00;;;9.50;97.20;;;;;;5080537;28;20063;-74
2021/12/29 02:56:49;;;;;;;7.55;3.05;;;9.50;97.20;;;;;;5066438;28;20052;-74
2021/12/29 02:59:16;;;;;;;8.25;4.25;;;9.40;97.20;;;;;;5084777;28;20075;-74
2021/12/29 03:01:44;;;;;;;7.72;4.25;;;9.50;97.20;;;;;;5084459;28;20040;-74
2021/12/29 03:04:11;;;;;;;8.77;4.05;;;9.40;97.20;;;;;;5066722;28;20056;-74
2021/12/29 03:06:39;;;;;;;11.63;4.03;;;9.40;97.20;;;;;;5084701;28;21331;-74
2021/12/29 03:09:13;;;;;;;9.57;3.50;;;9.40;97.20;;;;;;5083662;28;20496;-74
2021/12/29 03:11:40;;;;;;;7.47;3.47;;;9.40;97.20;;;;;;5066661;28;20052;-74
2021/12/29 03:14:09;;;;;;;7.05;3.38;;;9.40;97.20;;;;;;5067498;28;20044;-74
2021/12/29 03:16:37;;;;;;;7.10;2.80;;;9.40;97.20;;;;;;5082638;28;20101;-74
2021/12/29 03:19:05;;;;;;;5.75;3.05;;;9.40;97.20;;;;;;5084583;28;20119;-73
2021/12/29 03:21:52;;;;;;;;;;;;;;;;;;;;;
2021/12/29 03:24:36;;;;;;;7.07;2.50;;;9.50;97.20;;;;;;5070832;28;20089;-73
2021/12/29 03:27:03;;;;;;;7.95;2.75;;;9.50;97.30;;;;;;5082788;28;20675;-73
2021/12/29 03:29:30;;;;;;;6.82;3.63;;;9.40;97.20;;;;;;5084462;28;20052;-73
2021/12/29 03:31:59;;;;;;;8.05;3.30;;;9.50;97.20;;;;;;5082423;28;20487;-73
2021/12/29 03:34:26;;;;;;;7.50;3.30;;;9.40;97.20;;;;;;5066632;28;20036;-73
2021/12/29 03:36:53;;;;;;;8.05;2.83;;;9.40;97.20;;;;;;5067509;28;20209;-73
2021/12/29 03:39:26;;;;;;;8.23;2.88;;;9.40;97.20;;;;;;5085107;28;20050;-74
2021/12/29 03:41:54;;;;;;;5.75;2.88;;;9.50;97.20;;;;;;5059670;28;20754;-74
2021/12/29 03:44:21;;;;;;;9.05;3.58;;;9.50;97.50;;;;;;5084010;28;20052;-74
2021/12/29 03:46:51;;;;;;;6.05;2.72;;;9.40;97.10;;;;;;5066858;28;20135;-74
2021/12/29 03:49:18;;;;;;;7.88;3.08;;;9.50;97.20;;;;;;5071906;28;20075;-74
2021/12/29 03:51:46;;;;;;;7.55;3.03;;;9.40;97.20;;;;;;5083250;28;20408;-74
2021/12/29 03:54:13;;;;;;;6.05;2.85;;;9.40;97.10;;;;;;5082029;28;20051;-74
2021/12/29 03:56:40;;;;;;;7.82;2.10;;;9.40;97.10;;;;;;5065790;28;20052;-73
2021/12/29 03:59:07;;;;;;;6.57;2.50;;;9.50;97.20;;;;;;5082004;28;20123;-73
2021/12/29 04:01:34;;;;;;;10.23;3.10;;;9.50;97.20;;;;;;5084926;28;20047;-73
2021/12/29 04:04:01;;;;;;;5.35;1.83;;;9.50;97.20;;;;;;5065929;28;20128;-74
2021/12/29 04:06:28;;;;;;;5.32;2.20;;;9.40;97.10;;;;;;5083139;28;20048;-74
2021/12/29 04:08:55;;;;;;;6.03;2.08;;;9.50;97.20;;;;;;5050846;28;20511;-74
2021/12/29 04:11:22;;;;;;;5.25;2.30;;;9.50;97.20;;;;;;5084272;28;20071;-74
2021/12/29 04:13:50;;;;;;;3.58;1.30;;;9.40;97.10;;;;;;5081136;28;20080;-74
2021/12/29 04:16:18;;;;;;;4.63;1.90;;;9.40;97.20;;;;;;5082339;28;20044;-74
2021/12/29 04:19:06;;;;;;;7.68;2.45;;;9.50;97.20;;;;;;5083188;28;20066;-74
2021/12/29 04:21:35;;;;;;;5.70;1.98;;;9.50;97.20;;;;;;5082875;28;20044;-74
2021/12/29 04:24:04;;;;;;;7.15;2.03;;;9.40;97.10;;;;;;5082858;28;20032;-74
2021/12/29 04:26:33;;;;;;;5.65;1.83;;;9.40;97.20;;;;;;5082744;28;20071;-74
2021/12/29 04:29:00;;;;;;;7.00;2.08;;;9.40;97.20;;;;;;5067850;28;20468;-74
2021/12/29 04:31:27;;;;;;;6.85;2.10;;;9.40;97.20;;;;;;5083436;28;20048;-74
2021/12/29 04:33:54;;;;;;;4.80;2.08;;;9.40;97.20;;;;;;5085241;28;20113;-74
2021/12/29 04:36:24;;;;;;;7.97;2.80;;;9.40;97.20;;;;;;5086401;28;20043;-74
2021/12/29 04:38:53;;;;;;;7.00;2.85;;;9.40;97.20;;;;;;5085472;28;20052;-74
2021/12/29 04:41:21;;;;;;;7.00;3.10;;;9.40;97.20;;;;;;5086874;28;20046;-73
2021/12/29 04:43:48;;;;;;;8.98;3.22;;;9.40;97.20;;;;;;5082802;28;20612;-73
2021/12/29 04:46:18;;;;;;;6.05;2.60;;;9.40;97.20;;;;;;5082686;28;20071;-73
2021/12/29 04:48:51;;;;;;;6.53;2.85;;;9.40;97.20;;;;;;5081898;28;20051;-74
2021/12/29 04:51:25;;;;;;;6.32;2.47;;;9.40;97.20;;;;;;5083336;28;20056;-73
2021/12/29 04:53:52;;;;;;;5.18;1.63;;;9.40;97.20;;;;;;5080650;28;20483;-73
2021/12/29 04:56:19;;;;;;;6.13;2.15;;;9.40;97.20;;;;;;5064927;28;20048;-73
2021/12/29 04:58:46;;;;;;;5.93;2.03;;;9.40;97.20;;;;;;5082836;28;20076;-76
2021/12/29 05:01:13;;;;;;;4.68;2.03;;;9.40;97.20;;;;;;5068166;28;20543;-75
2021/12/29 05:03:43;;;;;;;5.40;1.90;;;9.40;97.20;;;;;;5084785;28;20666;-75
2021/12/29 05:08:38;;;;;;;5.65;2.47;;;9.40;97.20;;;;;;5082841;28;20049;-76
2021/12/29 05:11:08;;;;;;;5.45;2.53;;;9.40;97.20;;;;;;5083909;28;20093;-76
2021/12/29 05:13:38;;;;;;;5.80;2.72;;;9.40;97.20;;;;;;5083648;28;20139;-73
2021/12/29 05:16:06;;;;;;;4.28;1.52;;;9.40;97.20;;;;;;5082000;28;20040;-74
2021/12/29 05:18:35;;;;;;;3.85;1.40;;;9.40;97.20;;;;;;5081092;28;20044;-73
2021/12/29 05:21:04;;;;;;;4.82;2.15;;;9.40;97.20;;;;;;5082740;28;20032;-74
2021/12/29 05:23:31;;;;;;;5.20;1.60;;;9.40;97.20;;;;;;5081332;28;20927;-74
2021/12/29 05:25:58;;;;;;;4.55;1.73;;;9.40;97.30;;;;;;5080175;28;20064;-73
2021/12/29 05:28:25;;;;;;;4.70;1.58;;;9.40;97.20;;;;;;5083285;28;20064;-74
2021/12/29 05:30:53;;;;;;;5.22;2.92;;;9.40;97.20;;;;;;5082697;28;20051;-74
2021/12/29 05:33:21;;;;;;;6.00;2.83;;;9.30;97.20;;;;;;5080797;28;20071;-74
2021/12/29 05:35:49;;;;;;;4.72;2.35;;;9.30;97.20;;;;;;5080224;28;20044;-74
2021/12/29 05:38:16;;;;;;;7.60;2.58;;;9.40;97.20;;;;;;5081647;28;20106;-74
2021/12/29 05:40:43;;;;;;;6.75;2.80;;;9.40;97.20;;;;;;5082087;28;20074;-76
2021/12/29 05:43:10;;;;;;;5.68;2.33;;;9.30;97.20;;;;;;5081358;28;20688;-75
2021/12/29 05:45:37;;;;;;;4.82;2.30;;;9.40;97.20;;;;;;5064843;28;20036;-74
2021/12/29 05:48:04;;;;;;;6.10;2.53;;;9.40;97.20;;;;;;5066091;28;20123;-72
2021/12/29 05:50:33;;;;;;;6.53;2.75;;;9.40;97.20;;;;;;5065305;28;20040;-75
2021/12/29 05:53:01;;;;;;;6.43;3.13;;;9.40;97.20;;;;;;5065120;28;20090;-74
2021/12/29 05:55:28;;;;;;;6.63;3.47;;;9.40;97.20;;;;;;5082604;28;20070;-75
2021/12/29 05:57:56;;;;;;;7.13;3.75;;;9.40;97.20;;;;;;5082987;28;20075;-75
2021/12/29 06:00:24;;;;;;;8.07;4.15;;;9.40;97.20;;;;;;5082784;28;20152;-74
2021/12/29 06:02:52;;;;;;;6.93;3.88;;;9.30;97.20;;;;;;5079853;28;21107;-77
2021/12/29 06:05:20;;;;;;;7.00;3.60;;;9.40;97.20;;;;;;5065190;28;20148;-76
2021/12/29 06:07:47;;;;;;;7.57;4.95;;;9.40;97.20;;;;;;5081554;28;20040;-73
2021/12/29 06:10:15;;;;;;;10.15;3.97;;;9.40;97.20;;;;;;5080055;28;20150;-74
2021/12/29 06:12:42;;;;;;;6.85;4.10;;;9.40;97.20;;;;;;5064241;28;20052;-73
2021/12/29 06:15:09;;;;;;;6.03;3.58;;;9.40;97.20;;;;;;5079960;28;20530;-76
2021/12/29 06:17:37;;;;;;;6.50;3.60;;;9.30;97.20;;;;;;5049904;28;20098;-77
2021/12/29 06:20:07;;;;;;;7.68;3.70;;;9.40;97.20;;;;;;5079268;28;20531;-74
2021/12/29 06:22:35;;;;;;;6.05;3.80;;;9.40;97.20;;;;;;5083078;28;20044;-76
2021/12/29 06:25:05;;;;;;;6.05;3.50;;;9.40;97.20;;;;;;5063927;28;20046;-76
2021/12/29 06:27:32;;;;;;;5.53;3.15;;;9.30;97.20;;;;;;5081604;28;20123;-74
2021/12/29 06:30:00;;;;;;;5.55;2.97;;;9.40;97.30;;;;;;5082627;28;20093;-74
2021/12/29 06:32:27;;;;;;;5.50;3.53;;;9.40;97.20;;;;;;5085042;28;20392;-74
2021/12/29 06:34:54;;;;;;;7.55;3.97;;;9.40;97.20;;;;;;5067676;28;20048;-73
2021/12/29 06:37:22;;;;;;;5.65;3.33;;;9.40;97.20;;;;;;5080877;28;20112;-75
2021/12/29 06:39:49;;;;;;;4.43;2.70;;;9.40;97.20;;;;;;5064288;28;20141;-74
2021/12/29 06:42:16;;;;;;;7.50;3.90;;;9.40;97.30;;;;;;5084490;28;20064;-74
2021/12/29 06:44:47;;;;;;;7.72;3.40;;;9.40;97.30;;;;;;5085832;28;20060;-76
2021/12/29 06:47:16;;;;;;;5.07;2.70;;;9.40;97.20;;;;;;5086583;28;20036;-75
2021/12/29 06:49:44;;;;;;;5.65;2.88;;;9.40;97.30;;;;;;5069583;28;20051;-75
2021/12/29 06:52:11;;;;;;;5.20;2.50;;;9.40;97.30;;;;;;5088012;28;20032;-78
2021/12/29 06:54:38;;;;;;;5.43;3.00;;;9.40;97.30;;;;;;5088888;28;20067;-78
2021/12/29 06:57:05;;;;;;;5.68;2.38;;;9.40;97.30;;;;;;5072036;28;20130;-78
2021/12/29 06:59:33;;;;;;;6.47;2.60;;;9.40;97.30;;;;;;5087196;28;20044;-76
2021/12/29 07:02:00;;;;;;;5.28;2.50;;;9.40;97.30;;;;;;5070296;28;20063;-78
2021/12/29 07:04:29;;;;;;;5.25;2.83;;;9.40;97.30;;;;;;5086865;28;20048;-78
2021/12/29 07:06:57;;;;;;;7.55;3.25;;;9.30;97.30;;;;;;5071084;28;20112;-77
2021/12/29 07:09:24;;;;;;;6.93;2.83;;;9.30;97.20;;;;;;5086581;28;20093;-77
2021/12/29 07:11:51;;;;;;;5.07;2.95;;;9.30;97.30;;;;;;5089570;28;20085;-77
2021/12/29 07:14:20;;;;;;;4.45;2.88;;;9.30;97.30;;;;;;5088278;28;20805;-78
2021/12/29 07:16:49;;;;;;;5.00;2.90;;;9.30;97.30;;;;;;5086737;28;20097;-77
2021/12/29 07:19:19;;;;;;;5.65;2.20;;;9.30;97.30;;;;;;5088283;28;20032;-78
2021/12/29 07:21:47;;;;;;;4.93;2.45;;;9.30;97.30;;;;;;5088521;28;20476;-79
2021/12/29 07:24:16;;;;;;;4.65;2.47;;;9.40;97.30;;;;;;5086968;28;20044;-78
2021/12/29 07:26:43;;;;;;;4.85;2.33;;;9.30;97.30;;;;;;5084273;28;20139;-74
2021/12/29 07:29:10;;;;;;;4.15;2.17;;;9.30;97.60;;;;;;5066019;28;20123;-74
2021/12/29 07:31:42;;;;;;;4.95;2.60;;;9.30;97.30;;;;;;5052134;28;20685;-74
2021/12/29 07:34:20;;;;;;;5.78;2.47;;;9.30;97.30;;;;;;5064685;28;20729;-74
2021/12/29 07:36:47;;;;;;;8.52;3.20;;;9.30;97.30;;;;;;5066340;28;20559;-75
2021/12/29 07:39:19;;;;;;;8.52;3.35;;;9.30;97.30;;;;;;5084809;28;20036;-74
2021/12/29 07:41:47;;;;;;;7.35;3.42;;;9.30;97.30;;;;;;5087161;28;20055;-75
2021/12/29 07:44:21;;;;;;;8.27;3.95;;;9.30;97.30;;;;;;5089149;28;20136;-75
2021/12/29 07:46:53;;;;;;;9.15;4.20;;;9.30;97.30;;;;;;5085944;28;20369;-74
2021/12/29 07:49:21;;;;;;;6.60;3.42;;;9.30;97.30;;;;;;5067681;28;20047;-75
2021/12/29 07:51:50;;;;;;;7.45;3.83;;;9.30;97.30;;;;;;5099506;28;20051;-73
2021/12/29 07:54:17;;;;;;;9.98;3.80;;;9.30;97.30;;;;;;5094759;28;20074;-72
2021/12/29 07:56:45;;;;;;;6.68;4.05;;;9.30;97.30;;;;;;5079779;28;20102;-72
2021/12/29 07:59:12;;;;;;;7.82;4.35;;;9.30;97.30;;;;;;5082030;28;20095;-73
2021/12/29 08:01:41;;;;;;;8.20;4.20;;;9.30;97.30;;;;;;5085642;28;20455;-75
2021/12/29 08:04:14;;;;;;;7.43;4.13;;;9.30;97.30;;;;;;5085260;28;20074;-75
2021/12/29 08:06:41;;;;;;;;;;;9.30;97.30;;;;;;5087666;28;20040;-77
2021/12/29 08:09:09;;;;;;;9.50;5.43;;;9.20;97.30;;;;;;5086614;28;19927;-75
2021/12/29 08:11:38;;;;;;;8.80;4.82;;;9.20;97.40;;;;;;5087554;28;20044;-76
2021/12/29 08:14:07;;;;;;;8.65;5.13;;;9.20;97.30;;;;;;5086343;28;20155;-75
2021/12/29 08:16:34;;;;;;;8.85;4.90;;;9.20;97.30;;;;;;5085742;28;20098;-75
2021/12/29 08:19:03;;;;;;;8.57;4.78;;;9.20;97.30;;;;;;5085702;28;20522;-75
2021/12/29 08:21:30;;;;;;;11.38;5.63;;;9.20;97.40;;;;;;5085956;28;20112;-74
2021/12/29 08:23:57;;;;;;;9.80;5.55;;;9.20;97.40;;;;;;5086735;28;20067;-75
2021/12/29 08:26:24;;;;;;;11.30;5.15;;;9.20;97.60;;;;;;5068216;28;20032;-76
2021/12/29 08:28:51;;;;;;;13.82;5.78;;;9.20;97.40;;;;;;5069445;28;20056;-76
2021/12/29 08:31:18;;;;;;;9.73;5.47;;;9.20;97.30;;;;;;5069521;28;20770;-76
2021/12/29 08:33:45;;;;;;;10.35;6.13;;;9.20;97.30;;;;;;5086458;28;20568;-76
2021/12/29 08:36:12;;;;;;;7.97;4.55;;;9.20;97.40;;;;;;5086962;28;20040;-75
2021/12/29 08:38:39;;;;;;;9.15;5.10;;;9.20;97.40;;;;;;5036161;28;20048;-76
2021/12/29 08:41:06;;;;;;;6.68;3.95;;;9.20;97.30;;;;;;5086272;28;20165;-75
2021/12/29 08:43:33;;;;;;;7.28;3.70;;;9.30;97.40;;;;;;5085028;28;20047;-76
2021/12/29 08:46:00;;;;;;;6.22;3.45;;;9.30;97.40;;;;;;5084337;28;20043;-75
2021/12/29 08:48:28;;;;;;;8.25;3.60;;;9.30;97.30;;;;;;5084361;28;20664;-76
2021/12/29 08:50:59;;;;;;;6.25;3.40;;;9.30;97.40;;;;;;5086723;28;20075;-75
2021/12/29 08:53:27;;;;;;;6.95;3.13;;;9.30;97.30;;;;;;5083641;28;20051;-76
2021/12/29 08:55:56;;;;;;;7.13;3.90;;;9.30;97.40;;;;;;5084570;28;20168;-76
2021/12/29 08:58:27;;;;;;;8.05;4.05;;;9.30;97.30;;;;;;5069160;28;20161;-74
2021/12/29 09:00:56;;;;;;;9.05;4.30;;;9.40;97.30;;;;;;5084510;28;20862;-76
2021/12/29 09:03:23;;;;;;;7.25;4.30;;;9.30;97.30;;;;;;5067227;28;20036;-75
2021/12/29 09:05:51;;;;;;;9.77;4.30;;;9.40;97.30;;;;;;5067341;28;20048;-78
2021/12/29 09:08:18;;;;;;;8.73;4.07;;;9.30;97.30;;;;;;5085639;28;20795;-78
2021/12/29 09:10:45;;;;;;;6.47;4.00;;;9.40;97.30;;;;;;5083878;28;20060;-80
2021/12/29 09:13:13;;;;;;;8.77;4.63;;;9.40;97.30;;;;;;5083713;28;20105;-74
2021/12/29 09:15:41;;;;;;;7.18;3.78;;;9.40;97.30;;;;;;5080203;28;20113;-73
2021/12/29 09:18:09;;;;;;;7.95;4.50;;;9.40;97.30;;;;;;5082345;28;20056;-74
2021/12/29 09:20:43;;;;;;;11.48;4.95;;;9.40;97.30;;;;;;5082796;28;20044;-73
2021/12/29 09:23:13;;;;;;;7.97;4.78;;;9.40;97.30;;;;;;5080761;28;20039;-74
2021/12/29 09:25:43;;;;;;;9.38;5.00;;;9.40;97.30;;;;;;5081195;28;20130;-74
2021/12/29 09:28:12;;;;;;;6.93;3.97;;;9.40;97.50;;;;;;5080381;28;20067;-74
2021/12/29 09:30:42;;;;;;;8.95;4.47;;;9.40;97.30;;;;;;5080575;28;20056;-75
2021/12/29 09:33:09;;;;;;;7.70;4.18;;;9.40;97.20;;;;;;5080379;28;20074;-75
2021/12/29 09:35:37;;;;;;;7.63;4.25;;;9.50;97.30;;;;;;5080060;28;20123;-75
2021/12/29 09:38:06;;;;;;;6.38;4.05;;;9.40;97.20;;;;;;5080842;28;20127;-74
2021/12/29 09:40:34;;;;;;;5.78;3.20;;;9.50;97.20;;;;;;5081296;28;20039;-74
2021/12/29 09:43:01;;;;;;;9.52;4.28;;;9.50;97.20;;;;;;5078854;28;20129;-73
2021/12/29 09:45:30;;;;;;;7.38;3.70;;;9.50;97.20;;;;;;5078226;28;20063;-75
2021/12/29 09:47:58;;;;;;;8.18;4.05;;;9.50;97.20;;;;;;5076694;28;20036;-74
2021/12/29 09:50:26;;;;;;;8.68;3.78;;;9.50;97.20;;;;;;5067825;28;20048;-76
2021/12/29 09:52:54;;;;;;;7.93;3.53;;;9.50;97.20;;;;;;5078188;28;20059;-75
2021/12/29 09:55:22;;;;;;;6.28;3.47;;;9.50;97.20;;;;;;5079527;28;20231;-74
2021/12/29 09:57:52;;;;;;;6.82;3.63;;;9.50;97.20;;;;;;5063018;28;20088;-75
2021/12/29 10:00:29;;;;;;;6.43;3.30;;;9.60;97.20;;;;;;5061751;28;20109;-76
2021/12/29 10:02:59;;;;;;;8.30;4.07;;;9.60;97.20;;;;;;5079055;28;20143;-74
2021/12/29 10:05:27;;;;;;;9.18;4.03;;;9.60;97.20;;;;;;5060779;28;20056;-76
2021/12/29 10:08:09;;;;;;;6.18;3.42;;;9.60;97.10;;;;;;5083916;28;20044;-76
2021/12/29 10:10:40;;;;;;;7.33;4.03;;;9.60;97.10;;;;;;5081835;28;20565;-73
2021/12/29 10:13:08;;;;;;;6.30;3.40;;;9.60;97.10;;;;;;5061844;28;20332;-73
2021/12/29 10:15:39;;;;;;;7.03;3.47;;;9.60;97.40;;;;;;5062727;28;20106;-73
2021/12/29 10:18:10;;;;;;;6.25;3.70;;;9.60;97.10;;;;;;5076213;28;20079;-72
2021/12/29 10:21:05;;;;;;;7.50;4.38;;;9.60;97.10;;;;;;5075726;28;20385;-71
2021/12/29 10:23:36;;;;;;;8.35;4.47;;;9.60;97.10;;;;;;5071829;28;20473;-72
2021/12/29 10:26:15;;;;;;;7.68;3.17;;;9.60;97.10;;;;;;5079136;28;20093;-71
2021/12/29 10:28:49;;;;;;;6.18;3.67;;;9.60;97.10;;;;;;5080852;28;20074;-71
2021/12/29 10:31:20;;;;;;;7.10;3.10;;;9.60;97.10;;;;;;5084100;28;20450;-71
2021/12/29 10:33:51;;;;;;;6.53;3.55;;;9.70;97.10;;;;;;5085698;28;20040;-70
2021/12/29 10:36:21;;;;;;;5.18;2.95;;;9.70;97.10;;;;;;5085862;28;20040;-71
2021/12/29 10:38:56;;;;;;;4.63;2.45;;;9.70;97.10;;;;;;5085818;28;20056;-71
2021/12/29 10:41:29;;;;;;;5.45;2.60;;;9.80;97.10;;;;;;5086499;28;20055;-71
2021/12/29 10:44:05;;;;;;;5.75;2.42;;;9.80;97.00;;;;;;5077577;28;20830;-71
2021/12/29 10:46:34;;;;;;;6.65;3.00;;;9.80;97.10;;;;;;5068366;28;20102;-71
2021/12/29 10:49:06;;;;;;;5.78;2.67;;;9.80;97.00;;;;;;5076848;28;20086;-71
2021/12/29 10:51:36;;;;;;;4.32;2.47;;;9.90;97.00;;;;;;5079025;28;20095;-72
2021/12/29 10:54:13;;;;;;;6.07;3.65;;;9.90;97.20;;;;;;5074907;28;20513;-71
2021/12/29 10:56:43;;;;;;;4.72;2.50;;;9.90;96.90;;;;;;5075335;28;20110;-71
2021/12/29 10:59:24;;;;;;;5.50;2.70;;;9.90;97.20;;;;;;5076409;28;20044;-71
2021/12/29 11:01:53;;;;;;;4.75;2.63;;;10.00;96.90;;;;;;5075775;28;20054;-72
2021/12/29 11:04:21;;;;;;;4.90;2.33;;;10.00;96.90;;;;;;5077978;28;20550;-70
2021/12/29 11:06:56;;;;;;;5.07;2.58;;;10.00;96.90;;;;;;5077870;28;20048;-71
2021/12/29 11:09:29;;;;;;;6.47;3.35;;;10.00;96.90;;;;;;5077123;28;20044;-72
2021/12/29 11:11:56;;;;;;;6.57;3.60;;;10.00;96.80;;;;;;5077193;28;20121;-74
2021/12/29 11:14:32;;;;;;;5.03;2.67;;;10.00;96.80;;;;;;5074896;28;20060;-73
2021/12/29 11:17:03;;;;;;;8.20;2.80;;;10.00;96.80;;;;;;5078272;28;20707;-73
2021/12/29 11:19:30;;;;;;;6.03;3.58;;;10.00;96.80;;;;;;5083591;28;20067;-72
2021/12/29 11:22:06;;;;;;;6.82;3.85;;;10.00;96.70;;;;;;5082500;28;20048;-73
2021/12/29 11:24:33;;;;;;;7.38;3.97;;;10.10;96.70;;;;;;5082128;28;20094;-74
2021/12/29 11:27:11;;;;;;;8.40;4.93;;;10.00;96.70;;;;;;5079824;28;20052;-71
2021/12/29 11:29:51;;;;;;;7.32;3.90;;;10.00;96.60;;;;;;5081236;28;20628;-74
2021/12/29 11:32:23;;;;;;;6.70;4.50;;;10.00;96.60;;;;;;5082674;28;20635;-74
2021/12/29 11:35:12;;;;;;;10.40;5.70;;;10.00;96.60;;;;;;5084269;28;20075;-74
2021/12/29 11:37:51;;;;;;;8.02;4.90;;;10.00;96.60;;;;;;5081569;28;20048;-73
2021/12/29 11:40:24;;;;;;;7.97;5.05;;;9.90;96.60;;;;;;5081592;28;20048;-74
2021/12/29 11:42:53;;;;;;;6.78;3.90;;;9.90;96.60;;;;;;5078238;28;20125;-74
2021/12/29 11:45:21;;;;;;;7.38;4.03;;;9.90;96.60;;;;;;5080549;28;20266;-74
2021/12/29 11:47:50;;;;;;;5.50;3.28;;;9.90;96.70;;;;;;5064874;28;20044;-74
2021/12/29 11:50:24;;;;;;;7.55;4.20;;;9.90;96.60;;;;;;5064798;28;20048;-74
2021/12/29 11:53:27;;;;;;;5.80;3.15;;;9.90;96.70;;;;;;5089632;28;20805;-73
2021/12/29 11:56:02;;;;;;;4.30;2.67;;;10.00;96.60;;;;;;5074560;28;20486;-74
2021/12/29 11:58:31;;;;;;;7.25;4.55;;;9.90;96.70;;;;;;5098983;28;20044;-73
2021/12/29 12:01:03;;;;;;;6.50;3.97;;;9.90;96.60;;;;;;5082744;28;20131;-72
2021/12/29 12:03:53;;;;;;;6.80;3.80;;;9.90;96.60;;;;;;5083157;28;20066;-72
2021/12/29 12:06:38;;;;;;;6.38;3.70;;;9.90;96.60;;;;;;5082031;28;20044;-72
2021/12/29 12:09:06;;;;;;;5.30;3.40;;;9.90;96.70;;;;;;5078205;28;20039;-72
2021/12/29 12:11:35;;;;;;;5.80;3.80;;;9.80;96.60;;;;;;5082496;28;20536;-72
2021/12/29 12:14:03;;;;;;;4.95;2.97;;;9.90;96.70;;;;;;5082234;28;20064;-73
2021/12/29 12:16:31;;;;;;;6.28;2.55;;;9.90;96.70;;;;;;5081551;28;20040;-73
2021/12/29 12:19:02;;;;;;;5.10;3.13;;;9.90;96.70;;;;;;5064956;28;20812;-73
2021/12/29 12:21:33;;;;;;;4.90;2.90;;;9.90;96.70;;;;;;5082641;28;20044;-77
2021/12/29 12:24:11;;;;;;;4.05;2.40;;;9.90;96.60;;;;;;5086590;28;20234;-76
2021/12/29 12:26:54;;;;;;;4.45;2.35;;;10.00;96.60;;;;;;5068537;28;20048;-76
2021/12/29 12:29:29;;;;;;;3.90;1.98;;;10.00;96.60;;;;;;5084056;28;20279;-76
2021/12/29 12:32:21;;;;;;;2.97;1.48;;;10.00;96.60;;;;;;5073821;28;20055;-76
2021/12/29 12:34:57;;;;;;;2.60;1.40;;;10.00;96.60;;;;;;5082409;28;20072;-77
2021/12/29 12:37:41;;;;;;;3.65;1.77;;;10.00;96.60;;;;;;5085607;28;20060;-76
2021/12/29 12:40:20;;;;;;;3.10;1.30;;;10.10;96.60;;;;;;5082884;28;20116;-74
2021/12/29 12:43:13;;;;;;;4.53;2.00;;;10.10;96.60;;;;;;5081943;28;20055;-75
2021/12/29 12:45:43;;;;;;;3.28;1.60;;;10.10;96.60;;;;;;5078857;28;20051;-74
2021/12/29 12:48:18;;;;;;;4.13;1.90;;;10.10;96.60;;;;;;5079217;28;20521;-75
2021/12/29 12:50:45;;;;;;;5.97;2.00;;;10.10;96.50;;;;;;5079110;28;20392;-74
2021/12/29 12:53:16;;;;;;;3.10;1.60;;;10.10;96.50;;;;;;5077505;28;20047;-74
2021/12/29 12:55:48;;;;;;;2.90;1.83;;;10.10;96.50;;;;;;5078109;28;20043;-74
2021/12/29 12:58:17;;;;;;;3.78;1.75;;;10.10;96.50;;;;;;5082838;28;20128;-75
2021/12/29 13:00:52;;;;;;;3.67;1.98;;;10.10;96.50;;;;;;5083913;28;20051;-76
2021/12/29 13:03:22;;;;;;;3.67;1.83;;;10.10;96.50;;;;;;5082788;28;20142;-75
2021/12/29 13:05:57;;;;;;;4.18;2.22;;;10.00;96.70;;;;;;5084773;28;20044;-74
2021/12/29 13:08:26;;;;;;;4.55;2.10;;;10.00;96.40;;;;;;5081263;28;20139;-75
2021/12/29 13:11:03;;;;;;;6.78;3.42;;;10.00;96.50;;;;;;5081266;28;20126;-75
2021/12/29 13:13:34;;;;;;;4.40;2.17;;;10.00;96.40;;;;;;5092432;28;20031;-75
2021/12/29 13:16:06;;;;;;;4.45;2.30;;;10.00;96.50;;;;;;5094741;28;20455;-75
2021/12/29 13:18:37;;;;;;;4.03;1.83;;;9.90;96.50;;;;;;5095705;28;20040;-75